Time;durP1;ratioP1;P1;durP2;ratioP2;P2;SDS_P1;SDS_P2;PMS_P1;PMS_P2;Temp;Humidity;BMP_temperature;BMP_pressure;BME280_temperature;BME280_humidity;BME280_pressure;Samples;Min_cycle;Max_cycle;Signal;HPM_P1;HPM_P2
2023/01/02 00:00:22;;;;;;;17.02;4.63;;;;;;;;;;4991892;28;20033;-49
2023/01/02 00:02:47;;;;;;;12.02;3.55;;;;;;;;;;4988653;28;20066;-44
2023/01/02 00:05:13;;;;;;;11.13;3.45;;;;;;;;;;4991577;28;20037;-44
2023/01/02 00:07:38;;;;;;;16.20;4.05;;;;;;;;;;4989545;28;20034;-44
2023/01/02 00:10:04;;;;;;;13.65;3.67;;;;;;;;;;4989164;28;20034;-47
2023/01/02 00:12:29;;;;;;;18.63;4.00;;;;;;;;;;4990160;28;20491;-43
2023/01/02 00:14:55;;;;;;;15.23;3.80;;;;;;;;;;4988640;28;20018;-49
2023/01/02 00:17:20;;;;;;;14.85;5.05;;;;;;;;;;4990176;28;20077;-46
2023/01/02 00:19:45;;;;;;;17.48;4.85;;;;;;;;;;4990843;28;20483;-44
2023/01/02 00:22:11;;;;;;;14.80;3.60;;;;;;;;;;4990670;28;20038;-43
2023/01/02 00:24:36;;;;;;;11.70;4.07;;;;;;;;;;4989546;28;20043;-46
2023/01/02 00:27:02;;;;;;;14.15;3.47;;;;;;;;;;4990537;28;20026;-44
2023/01/02 00:29:27;;;;;;;15.82;3.83;;;;;;;;;;4989904;28;20038;-43
2023/01/02 00:31:52;;;;;;;13.35;4.45;;;;;;;;;;4990636;28;20050;-44
2023/01/02 00:34:18;;;;;;;11.65;3.95;;;;;;;;;;4989644;28;20434;-44
2023/01/02 00:36:43;;;;;;;17.42;3.40;;;;;;;;;;4989450;28;20030;-51
2023/01/02 00:39:08;;;;;;;11.48;3.65;;;;;;;;;;4990803;28;20034;-49
2023/01/02 00:41:34;;;;;;;13.88;3.72;;;;;;;;;;4989672;28;20387;-43
2023/01/02 00:43:59;;;;;;;15.48;3.65;;;;;;;;;;4990020;28;20034;-44
2023/01/02 00:46:25;;;;;;;15.80;5.32;;;;;;;;;;4988737;28;20129;-43
2023/01/02 00:48:50;;;;;;;17.30;4.25;;;;;;;;;;4988062;28;20043;-47
2023/01/02 00:51:16;;;;;;;23.50;4.32;;;;;;;;;;4989434;28;20065;-44
2023/01/02 00:53:41;;;;;;;18.60;3.60;;;;;;;;;;4988253;28;20046;-43
2023/01/02 00:56:07;;;;;;;13.85;2.78;;;;;;;;;;4989900;28;20399;-43
2023/01/02 00:58:32;;;;;;;9.63;3.38;;;;;;;;;;4988883;28;20046;-44
2023/01/02 01:00:59;;;;;;;16.15;3.75;;;;;;;;;;4989548;28;20198;-44
2023/01/02 01:03:24;;;;;;;15.60;4.03;;;;;;;;;;4988337;28;20054;-44
2023/01/02 01:05:49;;;;;;;13.85;3.53;;;;;;;;;;4990062;28;20058;-46
2023/01/02 01:08:15;;;;;;;10.32;3.70;;;;;;;;;;4988732;28;20422;-44
2023/01/02 01:10:40;;;;;;;16.65;3.70;;;;;;;;;;4988201;28;20142;-46
2023/01/02 01:13:06;;;;;;;18.10;3.85;;;;;;;;;;4988947;28;20438;-47
2023/01/02 01:15:32;;;;;;;14.88;3.50;;;;;;;;;;4988926;28;20029;-47
2023/01/02 01:17:58;;;;;;;18.55;3.80;;;;;;;;;;4988436;28;20031;-43
2023/01/02 01:20:23;;;;;;;15.15;3.47;;;;;;;;;;4989763;28;20088;-44
2023/01/02 01:22:49;;;;;;;9.73;3.20;;;;;;;;;;5004254;28;20145;-46
2023/01/02 01:25:14;;;;;;;8.77;3.60;;;;;;;;;;4989730;28;20601;-44
2023/01/02 01:27:39;;;;;;;12.45;3.60;;;;;;;;;;4988524;28;20042;-49
2023/01/02 01:30:05;;;;;;;11.70;3.53;;;;;;;;;;4987873;28;20035;-43
2023/01/02 01:32:31;;;;;;;12.15;3.40;;;;;;;;;;4986437;28;20089;-49
2023/01/02 01:34:56;;;;;;;13.98;3.30;;;;;;;;;;4989341;28;20478;-44
2023/01/02 01:37:22;;;;;;;10.50;3.60;;;;;;;;;;4988020;28;20042;-47
2023/01/02 01:39:47;;;;;;;12.30;3.75;;;;;;;;;;4989068;28;20088;-42
2023/01/02 01:42:14;;;;;;;19.10;4.05;;;;;;;;;;4988609;28;20049;-43
2023/01/02 01:44:41;;;;;;;16.23;3.65;;;;;;;;;;4989545;28;20470;-51
2023/01/02 01:47:38;;;;;;;12.40;5.13;;;;;;;;;;4987019;28;20381;-45
2023/01/02 01:50:08;;;;;;;12.70;3.30;;;;;;;;;;4984008;28;20038;-43
2023/01/02 01:52:38;;;;;;;17.13;3.65;;;;;;;;;;4988867;28;20057;-48
2023/01/02 01:55:33;;;;;;;21.20;3.50;;;;;;;;;;4988189;28;20046;-44
2023/01/02 01:58:02;;;;;;;13.18;3.20;;;;;;;;;;4978943;28;20046;-44
2023/01/02 02:00:28;;;;;;;12.98;3.30;;;;;;;;;;4988661;28;20034;-46
2023/01/02 02:02:58;;;;;;;8.77;3.45;;;;;;;;;;4986229;28;20050;-46
2023/01/02 02:05:28;;;;;;;11.77;3.53;;;;;;;;;;4988226;28;20018;-45
2023/01/02 02:08:09;;;;;;;15.00;3.38;;;;;;;;;;4987924;28;20034;-44
2023/01/02 02:10:36;;;;;;;9.75;3.20;;;;;;;;;;4987914;28;20030;-44
2023/01/02 02:13:02;;;;;;;9.18;2.90;;;;;;;;;;4985109;28;20039;-45
2023/01/02 02:15:42;;;;;;;18.27;3.15;;;;;;;;;;4988364;28;20440;-45
2023/01/02 02:18:19;;;;;;;12.88;3.40;;;;;;;;;;4983742;28;20111;-43
2023/01/02 02:21:04;;;;;;;10.75;3.95;;;;;;;;;;4988245;28;20025;-46
2023/01/02 02:23:49;;;;;;;12.82;3.80;;;;;;;;;;4988459;28;20051;-47
2023/01/02 02:26:45;;;;;;;11.63;3.65;;;;;;;;;;5006055;28;20045;-49
2023/01/02 02:29:20;;;;;;;10.80;3.90;;;;;;;;;;5005548;28;20111;-43
2023/01/02 02:32:01;;;;;;;14.38;3.75;;;;;;;;;;4998733;28;20076;-47
2023/01/02 02:34:51;;;;;;;10.27;3.30;;;;;;;;;;5004732;28;20056;-46
2023/01/02 02:37:22;;;;;;;13.25;3.60;;;;;;;;;;5004694;28;20092;-46
2023/01/02 02:40:07;;;;;;;12.93;3.60;;;;;;;;;;5005823;28;20038;-46
2023/01/02 02:42:38;;;;;;;10.27;3.72;;;;;;;;;;5005030;28;20124;-43
2023/01/02 02:45:31;;;;;;;8.88;3.55;;;;;;;;;;5005216;28;20040;-47
2023/01/02 02:48:24;;;;;;;16.38;4.63;;;;;;;;;;5004965;28;20066;-46
2023/01/02 02:50:55;;;;;;;10.02;3.50;;;;;;;;;;5001552;28;20050;-47
2023/01/02 02:53:23;;;;;;;15.30;4.38;;;;;;;;;;5006244;28;20128;-47
2023/01/02 02:55:56;;;;;;;12.02;3.75;;;;;;;;;;5004948;28;20381;-46
2023/01/02 02:58:25;;;;;;;10.60;3.58;;;;;;;;;;5004593;28;20566;-49
2023/01/02 03:01:03;;;;;;;14.48;4.10;;;;;;;;;;5004593;28;20170;-43
2023/01/02 03:03:28;;;;;;;13.52;4.45;;;;;;;;;;4995591;28;20045;-46
2023/01/02 03:06:00;;;;;;;14.18;3.53;;;;;;;;;;4985509;28;20031;-45
2023/01/02 03:08:40;;;;;;;13.17;3.27;;;;;;;;;;4988458;28;20038;-49
2023/01/02 03:11:06;;;;;;;11.48;3.42;;;;;;;;;;4987996;28;20556;-44
2023/01/02 03:13:42;;;;;;;11.48;4.35;;;;;;;;;;4987067;28;20129;-43
2023/01/02 03:16:28;;;;;;;16.67;4.05;;;;;;;;;;4983946;28;20091;-49
2023/01/02 03:19:14;;;;;;;11.75;3.70;;;;;;;;;;4983713;28;20039;-44
2023/01/02 03:21:46;;;;;;;20.58;4.13;;;;;;;;;;4983107;28;20030;-44
2023/01/02 03:24:17;;;;;;;8.50;3.17;;;;;;;;;;4983585;28;20471;-49
2023/01/02 03:26:45;;;;;;;14.00;3.65;;;;;;;;;;4987370;28;20460;-50
2023/01/02 03:29:24;;;;;;;13.02;3.92;;;;;;;;;;4987170;28;20030;-43
2023/01/02 03:31:54;;;;;;;16.33;3.88;;;;;;;;;;4986386;28;20129;-44
2023/01/02 03:34:24;;;;;;;10.38;3.13;;;;;;;;;;4985615;28;20105;-43
2023/01/02 03:36:54;;;;;;;13.77;4.03;;;;;;;;;;4984878;28;20453;-43
2023/01/02 03:39:25;;;;;;;12.43;3.95;;;;;;;;;;4987795;28;20027;-48
2023/01/02 03:41:55;;;;;;;13.15;4.07;;;;;;;;;;4990306;28;20081;-44
2023/01/02 03:44:25;;;;;;;10.05;3.78;;;;;;;;;;4986646;28;20034;-45
2023/01/02 03:46:58;;;;;;;9.68;3.25;;;;;;;;;;4985836;28;20478;-43
2023/01/02 03:49:33;;;;;;;17.00;4.18;;;;;;;;;;4983015;28;20039;-43
2023/01/02 03:51:59;;;;;;;11.73;3.35;;;;;;;;;;4984758;28;20546;-43
2023/01/02 03:54:26;;;;;;;12.80;3.60;;;;;;;;;;4986159;28;20547;-44
2023/01/02 03:57:03;;;;;;;14.60;4.03;;;;;;;;;;4985242;28;20121;-43
2023/01/02 03:59:48;;;;;;;15.60;3.38;;;;;;;;;;4985974;28;20748;-43
2023/01/02 04:02:25;;;;;;;13.38;3.72;;;;;;;;;;4985913;28;20470;-44
2023/01/02 04:04:55;;;;;;;13.20;3.55;;;;;;;;;;4986682;28;20092;-45
2023/01/02 04:07:39;;;;;;;16.23;3.63;;;;;;;;;;4983606;28;20436;-43
2023/01/02 04:10:06;;;;;;;5.68;3.25;;;;;;;;;;4985107;28;20023;-43
2023/01/02 04:12:36;;;;;;;8.98;3.67;;;;;;;;;;4984412;28;20042;-47
2023/01/02 04:15:08;;;;;;;11.90;4.15;;;;;;;;;;4984870;28;20049;-44
2023/01/02 04:17:36;;;;;;;;;;;;;;;;;;4987316;28;20066;-43
2023/01/02 04:20:05;;;;;;;9.07;3.17;;;;;;;;;;4987754;28;19920;-44
2023/01/02 04:22:57;;;;;;;8.38;3.05;;;;;;;;;;4985322;28;20081;-44
2023/01/02 04:25:30;;;;;;;11.68;3.63;;;;;;;;;;4979975;28;20077;-43
2023/01/02 04:28:10;;;;;;;12.35;3.58;;;;;;;;;;4988527;28;20045;-44
2023/01/02 04:30:41;;;;;;;10.57;3.33;;;;;;;;;;4987967;28;20030;-43
2023/01/02 04:33:09;;;;;;;12.52;4.10;;;;;;;;;;4989829;28;20442;-44
2023/01/02 04:35:34;;;;;;;11.48;3.22;;;;;;;;;;4990432;28;20026;-45
2023/01/02 04:38:08;;;;;;;11.27;3.78;;;;;;;;;;4990090;28;20049;-43
2023/01/02 04:40:36;;;;;;;13.02;3.30;;;;;;;;;;4990306;28;20471;-44
2023/01/02 04:43:11;;;;;;;8.80;3.22;;;;;;;;;;4987293;28;20042;-47
2023/01/02 04:45:37;;;;;;;11.85;3.13;;;;;;;;;;4989202;28;20041;-43
2023/01/02 04:48:02;;;;;;;11.50;3.17;;;;;;;;;;4990244;28;20117;-43
2023/01/02 04:50:28;;;;;;;9.55;3.25;;;;;;;;;;4990585;28;20054;-41
2023/01/02 04:52:53;;;;;;;16.02;4.25;;;;;;;;;;4987900;28;20101;-44
2023/01/02 04:55:18;;;;;;;8.25;2.70;;;;;;;;;;4991087;28;20033;-44
2023/01/02 04:57:44;;;;;;;10.50;3.25;;;;;;;;;;4990468;28;20048;-43
2023/01/02 05:00:10;;;;;;;8.18;3.13;;;;;;;;;;4989734;28;20391;-44
2023/01/02 05:02:36;;;;;;;12.73;3.47;;;;;;;;;;4988716;28;20084;-43
2023/01/02 05:05:03;;;;;;;10.98;3.25;;;;;;;;;;4989866;28;20034;-44
2023/01/02 05:07:28;;;;;;;11.73;3.25;;;;;;;;;;4989502;28;20042;-44
2023/01/02 05:09:53;;;;;;;10.30;4.03;;;;;;;;;;4989574;28;20030;-43
2023/01/02 05:12:19;;;;;;;9.20;3.10;;;;;;;;;;4988642;28;20034;-44
2023/01/02 05:14:44;;;;;;;13.20;3.53;;;;;;;;;;4987942;28;20473;-43
2023/01/02 05:17:09;;;;;;;11.50;3.72;;;;;;;;;;4989449;28;20046;-50
2023/01/02 05:19:35;;;;;;;10.48;3.60;;;;;;;;;;4990703;28;20022;-43
2023/01/02 05:24:44;;;;;;;5.25;2.88;;;;;;;;;;4988513;28;20045;-45
2023/01/02 05:27:09;;;;;;;12.60;3.20;;;;;;;;;;4989101;28;20038;-45
2023/01/02 05:29:35;;;;;;;10.48;3.10;;;;;;;;;;4987418;28;20042;-44
2023/01/02 05:32:00;;;;;;;8.15;2.90;;;;;;;;;;4988647;28;20431;-43
2023/01/02 05:34:25;;;;;;;8.18;3.40;;;;;;;;;;4989230;28;20018;-44
2023/01/02 05:36:51;;;;;;;12.75;3.13;;;;;;;;;;4987782;28;20047;-43
2023/01/02 05:39:16;;;;;;;9.73;2.80;;;;;;;;;;4988685;28;20082;-45
2023/01/02 05:41:42;;;;;;;6.07;2.70;;;;;;;;;;4987338;28;20033;-44
2023/01/02 05:44:09;;;;;;;9.25;3.85;;;;;;;;;;4989997;28;20422;-44
2023/01/02 05:46:35;;;;;;;9.40;3.20;;;;;;;;;;4988349;28;20027;-50
2023/01/02 05:49:05;;;;;;;6.97;2.88;;;;;;;;;;4988999;28;20045;-45
2023/01/02 05:51:30;;;;;;;7.68;3.08;;;;;;;;;;4989193;28;20475;-41
2023/01/02 05:53:55;;;;;;;7.13;3.13;;;;;;;;;;4988814;28;20105;-46
2023/01/02 05:56:21;;;;;;;9.00;3.50;;;;;;;;;;4987936;28;20046;-44
2023/01/02 05:58:48;;;;;;;11.20;3.33;;;;;;;;;;4986845;28;20069;-44
2023/01/02 06:01:19;;;;;;;15.40;2.95;;;;;;;;;;4989582;28;20033;-43
2023/01/02 06:03:46;;;;;;;18.58;3.55;;;;;;;;;;4987161;28;20049;-43
2023/01/02 06:06:13;;;;;;;14.00;3.80;;;;;;;;;;4989253;28;20033;-43
2023/01/02 06:08:38;;;;;;;12.20;3.72;;;;;;;;;;4986953;28;20030;-43
2023/01/02 06:11:04;;;;;;;10.30;3.38;;;;;;;;;;4987760;28;20040;-50
2023/01/02 06:13:31;;;;;;;11.82;3.45;;;;;;;;;;4988149;28;20046;-44
2023/01/02 06:15:58;;;;;;;7.80;3.00;;;;;;;;;;4984545;28;20394;-44
2023/01/02 06:18:24;;;;;;;10.77;3.15;;;;;;;;;;4987799;28;20039;-43
2023/01/02 06:20:49;;;;;;;9.38;3.67;;;;;;;;;;4988006;28;20045;-43
2023/01/02 06:23:15;;;;;;;9.57;3.83;;;;;;;;;;4988694;28;20042;-46
2023/01/02 06:25:40;;;;;;;10.18;3.70;;;;;;;;;;4985942;28;20059;-44
2023/01/02 06:28:06;;;;;;;5.53;3.00;;;;;;;;;;4987422;28;20075;-43
2023/01/02 06:30:31;;;;;;;8.25;4.22;;;;;;;;;;4988049;28;20443;-44
2023/01/02 06:32:57;;;;;;;13.43;3.60;;;;;;;;;;4986453;28;20137;-44
2023/01/02 06:35:22;;;;;;;11.60;3.35;;;;;;;;;;4988122;28;20384;-43
2023/01/02 06:37:48;;;;;;;8.27;3.83;;;;;;;;;;4987699;28;20034;-44
2023/01/02 06:40:14;;;;;;;13.48;3.85;;;;;;;;;;4987491;28;20037;-45
2023/01/02 06:42:42;;;;;;;9.85;4.28;;;;;;;;;;4986424;28;20518;-43
2023/01/02 06:45:07;;;;;;;12.45;4.53;;;;;;;;;;4988690;28;20041;-45
2023/01/02 06:47:33;;;;;;;11.85;3.70;;;;;;;;;;4987836;28;20046;-44
2023/01/02 06:49:58;;;;;;;10.80;4.15;;;;;;;;;;4985719;28;20047;-46
2023/01/02 06:52:25;;;;;;;12.82;3.03;;;;;;;;;;4985874;28;20407;-44
2023/01/02 06:54:51;;;;;;;10.98;3.42;;;;;;;;;;4986167;28;20034;-46
2023/01/02 06:57:16;;;;;;;8.88;3.08;;;;;;;;;;4987129;28;20451;-43
2023/01/02 06:59:41;;;;;;;8.27;3.28;;;;;;;;;;4988127;28;20022;-47
2023/01/02 07:02:10;;;;;;;12.48;3.92;;;;;;;;;;4986494;28;20050;-45
2023/01/02 07:04:35;;;;;;;14.98;3.42;;;;;;;;;;4987021;28;20037;-43
2023/01/02 07:07:01;;;;;;;9.93;4.28;;;;;;;;;;4985827;28;20039;-43
2023/01/02 07:09:26;;;;;;;9.00;3.20;;;;;;;;;;4988001;28;20077;-43
2023/01/02 07:11:52;;;;;;;7.85;3.55;;;;;;;;;;4985626;28;20394;-43
2023/01/02 07:14:18;;;;;;;11.63;3.72;;;;;;;;;;4986966;28;20038;-44
2023/01/02 07:16:43;;;;;;;10.88;3.20;;;;;;;;;;4986648;28;20117;-43
2023/01/02 07:19:09;;;;;;;8.05;3.70;;;;;;;;;;4987685;28;20467;-44
2023/01/02 07:21:34;;;;;;;10.95;3.83;;;;;;;;;;4986989;28;20434;-43
2023/01/02 07:23:59;;;;;;;10.98;3.05;;;;;;;;;;4987220;28;20041;-44
2023/01/02 07:26:25;;;;;;;11.57;3.15;;;;;;;;;;4987347;28;20126;-43
2023/01/02 07:28:50;;;;;;;9.45;3.13;;;;;;;;;;4986416;28;20031;-43
2023/01/02 07:31:17;;;;;;;13.48;3.95;;;;;;;;;;4986783;28;20042;-44
2023/01/02 07:33:43;;;;;;;9.35;3.80;;;;;;;;;;4985818;28;20070;-46
2023/01/02 07:36:18;;;;;;;10.52;5.47;;;;;;;;;;4987982;28;20070;-43
2023/01/02 07:38:48;;;;;;;9.80;4.32;;;;;;;;;;4987089;28;20042;-44
2023/01/02 07:41:19;;;;;;;11.50;3.78;;;;;;;;;;4986212;28;20483;-44
2023/01/02 07:43:45;;;;;;;9.30;3.30;;;;;;;;;;4987539;28;20043;-45
2023/01/02 07:46:11;;;;;;;15.18;4.13;;;;;;;;;;4986467;28;20036;-45
2023/01/02 07:48:37;;;;;;;11.60;4.53;;;;;;;;;;4987421;28;20053;-46
2023/01/02 07:51:04;;;;;;;13.70;4.28;;;;;;;;;;4985816;28;20431;-45
2023/01/02 07:53:30;;;;;;;10.57;3.45;;;;;;;;;;4984442;28;20105;-48
2023/01/02 07:55:57;;;;;;;13.00;5.15;;;;;;;;;;4986238;28;20050;-44
2023/01/02 07:58:23;;;;;;;18.42;4.32;;;;;;;;;;4984344;28;20038;-45
2023/01/02 08:00:48;;;;;;;9.20;4.78;;;;;;;;;;4987437;28;20037;-45
2023/01/02 08:03:14;;;;;;;8.85;3.60;;;;;;;;;;4988956;28;20788;-45
2023/01/02 08:05:39;;;;;;;11.10;4.85;;;;;;;;;;4991216;28;20032;-46
2023/01/02 08:08:05;;;;;;;16.13;4.80;;;;;;;;;;4989244;28;20100;-51
2023/01/02 08:10:30;;;;;;;10.48;4.13;;;;;;;;;;4989735;28;20077;-47
2023/01/02 08:12:56;;;;;;;9.32;3.92;;;;;;;;;;4989491;28;20136;-48
2023/01/02 08:15:22;;;;;;;14.93;4.13;;;;;;;;;;4989891;28;20537;-46
2023/01/02 08:17:47;;;;;;;14.30;4.03;;;;;;;;;;4991055;28;20038;-46
2023/01/02 08:20:13;;;;;;;10.63;4.43;;;;;;;;;;4990124;28;20022;-46
2023/01/02 08:22:38;;;;;;;10.70;3.20;;;;;;;;;;4986356;28;20574;-45
2023/01/02 08:25:04;;;;;;;9.35;3.28;;;;;;;;;;4985125;28;20023;-45
2023/01/02 08:27:30;;;;;;;8.20;3.30;;;;;;;;;;4989325;28;20046;-45
2023/01/02 08:29:55;;;;;;;11.65;4.95;;;;;;;;;;4990281;28;20567;-48
2023/01/02 08:32:21;;;;;;;14.52;4.63;;;;;;;;;;4990068;28;20035;-47
2023/01/02 08:34:46;;;;;;;15.68;3.63;;;;;;;;;;4990603;28;20378;-46
2023/01/02 08:37:12;;;;;;;15.90;4.55;;;;;;;;;;4989758;28;20045;-46
2023/01/02 08:39:37;;;;;;;19.73;4.70;;;;;;;;;;4990719;28;20029;-48
2023/01/02 08:42:03;;;;;;;12.68;3.60;;;;;;;;;;4989203;28;20588;-44
2023/01/02 08:44:28;;;;;;;10.98;3.83;;;;;;;;;;4991038;28;20030;-47
2023/01/02 08:46:54;;;;;;;6.85;3.40;;;;;;;;;;4989874;28;20038;-50
2023/01/02 08:49:20;;;;;;;8.27;3.53;;;;;;;;;;4990409;28;20065;-47
2023/01/02 08:51:45;;;;;;;16.40;3.95;;;;;;;;;;4989199;28;20106;-45
2023/01/02 08:54:11;;;;;;;10.65;4.35;;;;;;;;;;4989573;28;20046;-46
2023/01/02 08:56:37;;;;;;;12.93;4.57;;;;;;;;;;4988379;28;20478;-47
2023/01/02 08:59:08;;;;;;;11.52;3.80;;;;;;;;;;4990115;28;20023;-45
2023/01/02 09:01:34;;;;;;;9.25;3.28;;;;;;;;;;4988050;28;20045;-45
2023/01/02 09:04:00;;;;;;;11.32;3.40;;;;;;;;;;4988202;28;20054;-46
2023/01/02 09:06:28;;;;;;;15.05;4.80;;;;;;;;;;4988566;28;20026;-50
2023/01/02 09:08:57;;;;;;;11.98;3.80;;;;;;;;;;4989081;28;20027;-47
2023/01/02 09:11:31;;;;;;;8.73;3.92;;;;;;;;;;4990003;28;20049;-45
2023/01/02 09:13:59;;;;;;;11.15;4.18;;;;;;;;;;4988521;28;20038;-45
2023/01/02 09:16:25;;;;;;;9.20;3.75;;;;;;;;;;4991236;28;20080;-46
2023/01/02 09:18:51;;;;;;;15.98;3.83;;;;;;;;;;4989051;28;20039;-45
2023/01/02 09:21:17;;;;;;;10.15;3.38;;;;;;;;;;4988522;28;20054;-45
2023/01/02 09:23:42;;;;;;;9.52;3.22;;;;;;;;;;4988452;28;20062;-45
2023/01/02 09:26:10;;;;;;;8.65;2.92;;;;;;;;;;4987269;28;20033;-47
2023/01/02 09:28:35;;;;;;;6.82;3.40;;;;;;;;;;4988849;28;20097;-45
2023/01/02 09:31:10;;;;;;;13.38;3.60;;;;;;;;;;4990321;28;20072;-47
2023/01/02 09:33:35;;;;;;;11.82;3.53;;;;;;;;;;4986868;28;20122;-45
2023/01/02 09:36:03;;;;;;;6.18;2.97;;;;;;;;;;4987590;28;20446;-45
2023/01/02 09:38:29;;;;;;;9.45;3.30;;;;;;;;;;4987304;28;20047;-43
2023/01/02 09:40:56;;;;;;;9.35;3.30;;;;;;;;;;4990009;28;20046;-46
2023/01/02 09:43:39;;;;;;;12.02;4.07;;;;;;;;;;4986997;28;20105;-45
2023/01/02 09:46:09;;;;;;;8.55;3.63;;;;;;;;;;4988508;28;20460;-46
2023/01/02 09:48:35;;;;;;;8.98;3.38;;;;;;;;;;4988804;28;20031;-49
2023/01/02 09:51:05;;;;;;;11.10;3.53;;;;;;;;;;4988959;28;20130;-49
2023/01/02 09:53:32;;;;;;;6.30;2.92;;;;;;;;;;4988262;28;20038;-46
2023/01/02 09:56:00;;;;;;;5.90;2.92;;;;;;;;;;4986550;28;20054;-46
2023/01/02 09:58:37;;;;;;;4.75;3.03;;;;;;;;;;4986107;28;20046;-51
2023/01/02 10:01:05;;;;;;;5.28;3.15;;;;;;;;;;4988568;28;20023;-45
2023/01/02 10:03:59;;;;;;;18.48;3.70;;;;;;;;;;4988199;28;20042;-45
2023/01/02 10:06:33;;;;;;;11.90;3.45;;;;;;;;;;4987631;28;20046;-46
2023/01/02 10:09:25;;;;;;;6.82;3.35;;;;;;;;;;4986437;28;20050;-44
2023/01/02 10:12:16;;;;;;;7.25;3.03;;;;;;;;;;4984122;28;20113;-49
2023/01/02 10:14:47;;;;;;;12.05;2.80;;;;;;;;;;4987863;28;20521;-46
2023/01/02 10:17:14;;;;;;;6.43;3.28;;;;;;;;;;4986395;28;20044;-47
2023/01/02 10:19:47;;;;;;;8.40;3.17;;;;;;;;;;4987801;28;20495;-49
2023/01/02 10:22:19;;;;;;;9.90;3.97;;;;;;;;;;4987346;28;20046;-48
2023/01/02 10:24:53;;;;;;;11.10;3.30;;;;;;;;;;4987493;28;20052;-46
2023/01/02 10:27:24;;;;;;;10.88;3.40;;;;;;;;;;4987048;28;20125;-45
2023/01/02 10:30:02;;;;;;;10.57;3.67;;;;;;;;;;4988711;28;20026;-46
2023/01/02 10:32:29;;;;;;;10.25;3.65;;;;;;;;;;4987661;28;20081;-46
2023/01/02 10:35:06;;;;;;;14.32;3.45;;;;;;;;;;4988241;28;20034;-45
2023/01/02 10:37:33;;;;;;;12.65;3.95;;;;;;;;;;4985617;28;20042;-45
2023/01/02 10:39:59;;;;;;;14.63;4.03;;;;;;;;;;4988798;28;20114;-48
2023/01/02 10:42:25;;;;;;;11.20;4.07;;;;;;;;;;4988175;28;20042;-47
2023/01/02 10:44:51;;;;;;;13.02;3.88;;;;;;;;;;4986792;28;20092;-50
2023/01/02 10:47:33;;;;;;;8.93;3.72;;;;;;;;;;4985172;28;20089;-46
2023/01/02 10:49:59;;;;;;;8.98;3.20;;;;;;;;;;4984839;28;20472;-51
2023/01/02 10:52:44;;;;;;;7.32;3.30;;;;;;;;;;4988610;28;20492;-48
2023/01/02 10:55:10;;;;;;;11.60;3.50;;;;;;;;;;4986609;28;20108;-47
2023/01/02 10:57:50;;;;;;;7.25;3.55;;;;;;;;;;4987173;28;20096;-49
2023/01/02 11:00:18;;;;;;;9.30;4.15;;;;;;;;;;4990008;28;20053;-46
2023/01/02 11:02:49;;;;;;;11.93;3.38;;;;;;;;;;4986635;28;20061;-45
2023/01/02 11:05:28;;;;;;;10.07;3.38;;;;;;;;;;4985733;28;20184;-46
2023/01/02 11:07:53;;;;;;;10.10;3.40;;;;;;;;;;4987522;28;20034;-47
2023/01/02 11:10:35;;;;;;;12.02;3.65;;;;;;;;;;4985839;28;20545;-46
2023/01/02 11:13:02;;;;;;;9.38;4.50;;;;;;;;;;4983184;28;20088;-49
2023/01/02 11:15:29;;;;;;;13.15;3.67;;;;;;;;;;4986613;28;20053;-45
2023/01/02 11:17:57;;;;;;;19.73;4.78;;;;;;;;;;4985187;28;20042;-45
2023/01/02 11:20:32;;;;;;;9.75;4.40;;;;;;;;;;4986810;28;20033;-51
2023/01/02 11:23:00;;;;;;;11.65;4.07;;;;;;;;;;4987315;28;20033;-45
2023/01/02 11:25:48;;;;;;;8.75;3.15;;;;;;;;;;4987672;28;20072;-52
2023/01/02 11:28:18;;;;;;;10.15;3.80;;;;;;;;;;4984271;28;20403;-46
2023/01/02 11:30:46;;;;;;;18.08;7.80;;;;;;;;;;4986806;28;20066;-46
2023/01/02 11:33:26;;;;;;;15.85;7.35;;;;;;;;;;4986068;28;20104;-48
2023/01/02 11:36:03;;;;;;;11.82;3.72;;;;;;;;;;4986262;28;20375;-52
2023/01/02 11:38:44;;;;;;;15.70;4.60;;;;;;;;;;4986128;28;20081;-51
2023/01/02 11:44:33;;;;;;;18.52;5.57;;;;;;;;;;4987291;28;20066;-45
2023/01/02 11:47:00;;;;;;;13.20;5.93;;;;;;;;;;4986142;28;20092;-47
2023/01/02 11:49:31;;;;;;;13.93;4.95;;;;;;;;;;4986629;28;20057;-47
2023/01/02 11:52:00;;;;;;;16.25;7.68;;;;;;;;;;4985700;28;20046;-47
2023/01/02 11:54:52;;;;;;;17.58;4.40;;;;;;;;;;4987118;28;20046;-52
2023/01/02 11:57:27;;;;;;;19.10;6.43;;;;;;;;;;4986068;28;20054;-46
2023/01/02 11:59:54;;;;;;;16.38;5.18;;;;;;;;;;4988710;28;20544;-49
2023/01/02 12:02:31;;;;;;;14.63;5.78;;;;;;;;;;4985943;28;20046;-46
2023/01/02 12:04:56;;;;;;;19.65;5.75;;;;;;;;;;4984641;28;20034;-45
2023/01/02 12:07:38;;;;;;;10.70;4.95;;;;;;;;;;4983319;28;20342;-48
2023/01/02 12:10:23;;;;;;;17.88;5.05;;;;;;;;;;4985460;28;20030;-47
2023/01/02 12:13:04;;;;;;;11.40;4.63;;;;;;;;;;4986407;28;20039;-46
2023/01/02 12:15:44;;;;;;;11.15;4.43;;;;;;;;;;4985322;28;20038;-45
2023/01/02 12:18:18;;;;;;;12.15;3.92;;;;;;;;;;4986637;28;20640;-45
2023/01/02 12:20:46;;;;;;;20.92;5.30;;;;;;;;;;4986513;28;20606;-46
2023/01/02 12:23:24;;;;;;;12.73;4.53;;;;;;;;;;4985813;28;20074;-48
2023/01/02 12:26:16;;;;;;;11.68;4.03;;;;;;;;;;4984658;28;20101;-52
2023/01/02 12:29:17;;;;;;;13.03;3.77;;;;;;;;;;4982322;28;20101;-48
2023/01/02 12:32:05;;;;;;;10.75;3.67;;;;;;;;;;4986547;28;20785;-45
2023/01/02 12:34:48;;;;;;;14.07;3.67;;;;;;;;;;4983601;28;20034;-48
2023/01/02 12:37:29;;;;;;;15.73;4.00;;;;;;;;;;4984646;28;20117;-46
2023/01/02 12:40:00;;;;;;;12.95;4.07;;;;;;;;;;4985741;28;20034;-46
2023/01/02 12:43:11;;;;;;;11.52;3.67;;;;;;;;;;4986335;28;20046;-47
2023/01/02 12:46:01;;;;;;;9.82;3.60;;;;;;;;;;4950213;28;20039;-45
2023/01/02 12:48:33;;;;;;;12.32;4.15;;;;;;;;;;4950767;28;20039;-49
2023/01/02 12:51:20;;;;;;;5.30;2.92;;;;;;;;;;4949633;28;20054;-46
2023/01/02 12:53:51;;;;;;;9.68;2.67;;;;;;;;;;4953883;28;20598;-48
2023/01/02 12:56:51;;;;;;;12.93;3.77;;;;;;;;;;4953948;28;20081;-45
2023/01/02 12:59:47;;;;;;;9.93;4.22;;;;;;;;;;4937103;29;20055;-46
2023/01/02 13:02:40;;;;;;;15.52;5.85;;;;;;;;;;4931530;28;20052;-46
2023/01/02 13:05:15;;;;;;;11.00;4.70;;;;;;;;;;4932530;29;20152;-45
2023/01/02 13:08:10;;;;;;;12.10;4.72;;;;;;;;;;4936364;28;20235;-47
2023/01/02 13:10:37;;;;;;;11.50;3.72;;;;;;;;;;4934499;29;20472;-45
2023/01/02 13:13:02;;;;;;;9.20;3.15;;;;;;;;;;4934733;28;20099;-48
2023/01/02 13:15:33;;;;;;;5.32;3.00;;;;;;;;;;4933977;29;20048;-47
2023/01/02 13:18:09;;;;;;;16.58;3.50;;;;;;;;;;4935983;29;20093;-45
2023/01/02 13:20:46;;;;;;;10.30;4.18;;;;;;;;;;4937108;29;20039;-45
2023/01/02 13:23:32;;;;;;;9.35;4.05;;;;;;;;;;4928645;29;20098;-46
2023/01/02 13:26:07;;;;;;;8.70;3.55;;;;;;;;;;4928795;29;20039;-45
2023/01/02 13:28:41;;;;;;;16.67;5.50;;;;;;;;;;4925417;29;20153;-49
2023/01/02 13:31:10;;;;;;;13.65;4.38;;;;;;;;;;4929165;29;20028;-45
2023/01/02 13:33:44;;;;;;;13.65;5.45;;;;;;;;;;4927772;29;20487;-45
2023/01/02 13:36:25;;;;;;;22.83;4.63;;;;;;;;;;4959873;28;20043;-45
2023/01/02 13:38:59;;;;;;;9.15;5.03;;;;;;;;;;4986157;28;20093;-46
2023/01/02 13:41:27;;;;;;;13.27;4.00;;;;;;;;;;4989620;28;20081;-46
2023/01/02 13:43:59;;;;;;;12.18;4.85;;;;;;;;;;4988365;28;20092;-45
2023/01/02 13:46:37;;;;;;;12.77;3.85;;;;;;;;;;4986155;28;20037;-46
2023/01/02 13:49:05;;;;;;;9.65;3.20;;;;;;;;;;5012480;28;20038;-49
2023/01/02 13:51:35;;;;;;;15.85;3.60;;;;;;;;;;4987486;28;20118;-46
2023/01/02 13:54:15;;;;;;;5.28;3.40;;;;;;;;;;4988421;28;20026;-46
2023/01/02 13:57:28;;;;;;;16.73;3.92;;;;;;;;;;4985502;28;20050;-45
2023/01/02 14:00:02;;;;;;;15.35;3.40;;;;;;;;;;4986473;28;20053;-46
2023/01/02 14:02:28;;;;;;;9.00;2.75;;;;;;;;;;4988417;28;20074;-45
2023/01/02 14:04:53;;;;;;;8.52;3.15;;;;;;;;;;4988462;28;20066;-48
2023/01/02 14:07:25;;;;;;;10.30;3.25;;;;;;;;;;4988183;28;20192;-45
2023/01/02 14:10:28;;;;;;;14.43;4.13;;;;;;;;;;4988655;28;20578;-47
2023/01/02 14:13:01;;;;;;;10.93;5.95;;;;;;;;;;4984154;28;20042;-45
2023/01/02 14:15:27;;;;;;;13.48;4.63;;;;;;;;;;4984749;28;20034;-47
2023/01/02 14:17:55;;;;;;;7.53;3.42;;;;;;;;;;4988172;28;20085;-46
2023/01/02 14:20:24;;;;;;;13.80;4.05;;;;;;;;;;4987469;28;20038;-48
2023/01/02 14:22:53;;;;;;;13.68;6.45;;;;;;;;;;4989271;28;20045;-46
2023/01/02 14:25:20;;;;;;;19.85;6.82;;;;;;;;;;4987505;28;20479;-48
2023/01/02 14:28:05;;;;;;;15.32;6.70;;;;;;;;;;4987508;28;20046;-46
2023/01/02 14:30:35;;;;;;;11.25;6.38;;;;;;;;;;4987904;28;20042;-46
2023/01/02 14:33:01;;;;;;;17.95;6.50;;;;;;;;;;4987236;28;20234;-49
2023/01/02 14:35:32;;;;;;;11.10;4.75;;;;;;;;;;4987373;28;20034;-46
2023/01/02 14:38:17;;;;;;;19.93;5.73;;;;;;;;;;4987125;28;20061;-45
2023/01/02 14:40:45;;;;;;;12.77;3.92;;;;;;;;;;4984715;28;20844;-48
2023/01/02 14:43:31;;;;;;;16.48;5.07;;;;;;;;;;4988568;28;20038;-45
2023/01/02 14:46:05;;;;;;;15.57;6.72;;;;;;;;;;4987057;28;20684;-46
2023/01/02 14:49:01;;;;;;;12.27;4.95;;;;;;;;;;4987777;28;20045;-48
2023/01/02 14:51:39;;;;;;;12.07;3.95;;;;;;;;;;4986024;28;20046;-47
2023/01/02 14:54:19;;;;;;;13.85;3.60;;;;;;;;;;4985464;28;20072;-47
2023/01/02 14:56:50;;;;;;;10.65;3.15;;;;;;;;;;4986662;28;20035;-49
2023/01/02 14:59:29;;;;;;;14.77;3.72;;;;;;;;;;4987939;28;20102;-45
2023/01/02 15:01:59;;;;;;;11.05;4.32;;;;;;;;;;4983265;28;20042;-48